sensor_id;sensor_type;location;lat;lon;timestamp;pressure;altitude;pressure_sealevel;temperature;humidity
62942;BME280;49042;47.318;19.874;2023-06-22T00:01:33;100666.38;;;21.70;100.00
62942;BME280;49042;47.318;19.874;2023-06-22T00:04:34;100666.69;;;21.42;100.00
62942;BME280;49042;47.318;19.874;2023-06-22T00:07:36;100669.19;;;21.56;100.00
62942;BME280;49042;47.318;19.874;2023-06-22T00:13:40;100654.09;;;21.60;100.00
62942;BME280;49042;47.318;19.874;2023-06-22T00:16:41;100654.41;;;21.32;100.00
62942;BME280;49042;47.318;19.874;2023-06-22T00:19:46;100667.53;;;21.46;100.00
62942;BME280;49042;47.318;19.874;2023-06-22T00:22:48;100663.09;;;21.48;100.00
62942;BME280;49042;47.318;19.874;2023-06-22T00:25:50;100671.63;;;21.74;100.00
62942;BME280;49042;47.318;19.874;2023-06-22T00:28:52;100666.72;;;21.40;100.00
62942;BME280;49042;47.318;19.874;2023-06-22T00:31:54;100649.72;;;21.57;100.00
62942;BME280;49042;47.318;19.874;2023-06-22T00:34:56;100638.41;;;21.39;100.00
62942;BME280;49042;47.318;19.874;2023-06-22T00:37:59;100634.25;;;21.13;100.00
62942;BME280;49042;47.318;19.874;2023-06-22T00:41:06;100637.88;;;21.07;100.00
62942;BME280;49042;47.318;19.874;2023-06-22T00:44:07;100646.75;;;20.95;100.00
62942;BME280;49042;47.318;19.874;2023-06-22T00:47:11;100648.38;;;21.20;100.00
62942;BME280;49042;47.318;19.874;2023-06-22T00:50:19;100648.94;;;20.46;100.00
62942;BME280;49042;47.318;19.874;2023-06-22T00:53:22;100613.87;;;20.01;100.00
62942;BME280;49042;47.318;19.874;2023-06-22T00:56:24;100563.75;;;19.68;100.00
62942;BME280;49042;47.318;19.874;2023-06-22T00:59:26;100588.25;;;20.08;100.00
62942;BME280;49042;47.318;19.874;2023-06-22T01:02:28;100624.09;;;20.63;100.00
62942;BME280;49042;47.318;19.874;2023-06-22T01:05:31;100645.56;;;20.19;100.00
62942;BME280;49042;47.318;19.874;2023-06-22T01:08:43;100657.91;;;20.23;100.00
62942;BME280;49042;47.318;19.874;2023-06-22T01:11:54;100658.94;;;19.87;100.00
62942;BME280;49042;47.318;19.874;2023-06-22T01:15:02;100663.31;;;19.95;100.00
62942;BME280;49042;47.318;19.874;2023-06-22T01:18:07;100645.56;;;20.11;100.00
62942;BME280;49042;47.318;19.874;2023-06-22T01:21:14;100634.16;;;20.06;100.00
62942;BME280;49042;47.318;19.874;2023-06-22T01:24:24;100646.50;;;20.07;100.00
62942;BME280;49042;47.318;19.874;2023-06-22T01:30:45;100634.31;;;19.66;100.00
62942;BME280;49042;47.318;19.874;2023-06-22T01:33:58;100635.22;;;19.59;100.00
62942;BME280;49042;47.318;19.874;2023-06-22T01:37:01;100629.06;;;19.55;100.00
62942;BME280;49042;47.318;19.874;2023-06-22T01:40:05;100629.94;;;19.64;100.00
62942;BME280;49042;47.318;19.874;2023-06-22T01:43:07;100636.03;;;19.75;100.00
62942;BME280;49042;47.318;19.874;2023-06-22T01:46:11;100628.13;;;19.71;100.00
62942;BME280;49042;47.318;19.874;2023-06-22T01:49:13;100639.59;;;19.69;100.00
62942;BME280;49042;47.318;19.874;2023-06-22T01:52:15;100650.25;;;19.44;100.00
62942;BME280;49042;47.318;19.874;2023-06-22T01:55:17;100653.81;;;19.35;100.00
62942;BME280;49042;47.318;19.874;2023-06-22T01:58:20;100638.75;;;19.64;100.00
62942;BME280;49042;47.318;19.874;2023-06-22T02:01:35;100640.47;;;19.73;100.00
62942;BME280;49042;47.318;19.874;2023-06-22T02:04:52;100644.06;;;19.64;100.00
62942;BME280;49042;47.318;19.874;2023-06-22T02:08:07;100651.09;;;19.54;100.00
62942;BME280;49042;47.318;19.874;2023-06-22T02:11:11;100653.81;;;19.39;100.00
62942;BME280;49042;47.318;19.874;2023-06-22T02:14:15;100654.72;;;19.25;100.00
62942;BME280;49042;47.318;19.874;2023-06-22T02:17:20;100657.37;;;19.33;100.00
62942;BME280;49042;47.318;19.874;2023-06-22T02:20:24;100661.78;;;19.32;100.00
62942;BME280;49042;47.318;19.874;2023-06-22T02:23:25;100654.72;;;19.31;100.00
62942;BME280;49042;47.318;19.874;2023-06-22T02:26:27;100659.09;;;19.37;100.00
62942;BME280;49042;47.318;19.874;2023-06-22T02:29:29;100656.47;;;19.34;100.00
62942;BME280;49042;47.318;19.874;2023-06-22T02:32:31;100643.22;;;19.45;100.00
62942;BME280;49042;47.318;19.874;2023-06-22T02:35:35;100646.75;;;19.39;100.00
62942;BME280;49042;47.318;19.874;2023-06-22T02:38:37;100635.28;;;19.46;100.00
62942;BME280;49042;47.318;19.874;2023-06-22T02:41:39;100632.63;;;19.45;100.00
62942;BME280;49042;47.318;19.874;2023-06-22T02:44:41;100637.00;;;19.57;100.00
62942;BME280;49042;47.318;19.874;2023-06-22T02:47:43;100639.72;;;19.40;100.00
62942;BME280;49042;47.318;19.874;2023-06-22T02:50:45;100637.84;;;19.72;100.00
62942;BME280;49042;47.318;19.874;2023-06-22T02:53:46;100655.56;;;19.41;100.00
62942;BME280;49042;47.318;19.874;2023-06-22T02:56:48;100650.25;;;19.57;100.00
62942;BME280;49042;47.318;19.874;2023-06-22T02:59:52;100653.78;;;19.48;100.00
62942;BME280;49042;47.318;19.874;2023-06-22T03:02:54;100664.34;;;19.54;100.00
62942;BME280;49042;47.318;19.874;2023-06-22T03:05:56;100669.59;;;19.62;100.00
62942;BME280;49042;47.318;19.874;2023-06-22T03:09:00;100658.13;;;19.71;100.00
62942;BME280;49042;47.318;19.874;2023-06-22T03:12:02;100666.94;;;19.78;100.00
62942;BME280;49042;47.318;19.874;2023-06-22T03:15:08;100677.53;;;19.65;100.00
62942;BME280;49042;47.318;19.874;2023-06-22T03:18:10;100681.03;;;19.74;100.00
62942;BME280;49042;47.318;19.874;2023-06-22T03:21:12;100686.28;;;19.91;100.00
62942;BME280;49042;47.318;19.874;2023-06-22T03:24:14;100683.66;;;19.85;100.00
62942;BME280;49042;47.318;19.874;2023-06-22T03:27:16;100696.81;;;20.05;100.00
62942;BME280;49042;47.318;19.874;2023-06-22T03:30:17;100700.31;;;20.10;100.00
62942;BME280;49042;47.318;19.874;2023-06-22T03:33:19;100693.31;;;19.94;100.00
62942;BME280;49042;47.318;19.874;2023-06-22T03:36:21;100702.13;;;19.99;100.00
62942;BME280;49042;47.318;19.874;2023-06-22T03:39:23;100710.94;;;20.03;100.00
62942;BME280;49042;47.318;19.874;2023-06-22T03:42:26;100713.53;;;20.12;100.00
62942;BME280;49042;47.318;19.874;2023-06-22T03:45:27;100716.19;;;20.25;100.00
62942;BME280;49042;47.318;19.874;2023-06-22T03:48:29;100703.81;;;20.19;100.00
62942;BME280;49042;47.318;19.874;2023-06-22T03:51:32;100700.28;;;20.21;100.00
62942;BME280;49042;47.318;19.874;2023-06-22T03:54:34;100692.31;;;20.28;100.00
62942;BME280;49042;47.318;19.874;2023-06-22T03:57:36;100701.16;;;20.27;100.00
62942;BME280;49042;47.318;19.874;2023-06-22T04:00:37;100693.09;;;20.44;100.00
62942;BME280;49042;47.318;19.874;2023-06-22T04:03:41;100702.03;;;20.26;100.00
62942;BME280;49042;47.318;19.874;2023-06-22T04:06:43;100686.09;;;20.33;100.00
62942;BME280;49042;47.318;19.874;2023-06-22T04:09:44;100692.34;;;20.23;100.00
62942;BME280;49042;47.318;19.874;2023-06-22T04:12:47;100694.00;;;20.41;100.00
62942;BME280;49042;47.318;19.874;2023-06-22T04:15:48;100695.72;;;20.52;100.00
62942;BME280;49042;47.318;19.874;2023-06-22T04:18:50;100702.63;;;20.72;100.00
62942;BME280;49042;47.318;19.874;2023-06-22T04:21:52;100714.16;;;20.66;100.00
62942;BME280;49042;47.318;19.874;2023-06-22T04:24:53;100722.13;;;20.61;100.00
62942;BME280;49042;47.318;19.874;2023-06-22T04:27:56;100716.03;;;20.48;100.00
62942;BME280;49042;47.318;19.874;2023-06-22T04:30:58;100715.16;;;20.46;100.00
62942;BME280;49042;47.318;19.874;2023-06-22T04:34:06;100716.75;;;20.75;100.00
62942;BME280;49042;47.318;19.874;2023-06-22T04:37:08;100730.09;;;20.61;100.00
62942;BME280;49042;47.318;19.874;2023-06-22T04:40:10;100726.53;;;20.67;100.00
62942;BME280;49042;47.318;19.874;2023-06-22T04:43:12;100730.81;;;20.87;100.00
62942;BME280;49042;47.318;19.874;2023-06-22T04:46:13;100724.41;;;21.20;100.00
62942;BME280;49042;47.318;19.874;2023-06-22T04:49:15;100725.31;;;21.14;100.00
62942;BME280;49042;47.318;19.874;2023-06-22T04:52:17;100720.81;;;21.21;100.00
62942;BME280;49042;47.318;19.874;2023-06-22T04:55:21;100707.44;;;21.35;100.00
62942;BME280;49042;47.318;19.874;2023-06-22T04:58:23;100702.13;;;21.36;100.00
62942;BME280;49042;47.318;19.874;2023-06-22T05:01:29;100718.13;;;21.24;100.00
62942;BME280;49042;47.318;19.874;2023-06-22T05:04:32;100714.50;;;21.37;100.00
62942;BME280;49042;47.318;19.874;2023-06-22T05:07:35;100704.75;;;21.39;100.00
62942;BME280;49042;47.318;19.874;2023-06-22T05:10:37;100703.03;;;21.34;100.00
62942;BME280;49042;47.318;19.874;2023-06-22T05:13:48;100700.91;;;21.69;100.00
62942;BME280;49042;47.318;19.874;2023-06-22T05:16:50;100703.09;;;22.10;100.00
62942;BME280;49042;47.318;19.874;2023-06-22T05:19:53;100716.31;;;22.13;100.00
62942;BME280;49042;47.318;19.874;2023-06-22T05:22:56;100722.56;;;22.10;100.00
62942;BME280;49042;47.318;19.874;2023-06-22T05:25:58;100731.00;;;22.42;100.00
62942;BME280;49042;47.318;19.874;2023-06-22T05:29:01;100724.66;;;22.51;100.00
62942;BME280;49042;47.318;19.874;2023-06-22T05:32:04;100716.78;;;22.46;100.00
62942;BME280;49042;47.318;19.874;2023-06-22T05:35:06;100714.28;;;22.34;100.00
62942;BME280;49042;47.318;19.874;2023-06-22T05:38:08;100720.97;;;22.63;100.00
62942;BME280;49042;47.318;19.874;2023-06-22T05:41:09;100719.19;;;22.64;100.00
62942;BME280;49042;47.318;19.874;2023-06-22T05:44:11;100719.88;;;22.78;100.00
62942;BME280;49042;47.318;19.874;2023-06-22T05:47:13;100722.50;;;22.80;100.00
62942;BME280;49042;47.318;19.874;2023-06-22T05:50:15;100734.78;;;22.87;100.00
62942;BME280;49042;47.318;19.874;2023-06-22T05:53:17;100733.62;;;23.06;100.00
62942;BME280;49042;47.318;19.874;2023-06-22T05:56:19;100734.38;;;23.14;100.00
62942;BME280;49042;47.318;19.874;2023-06-22T05:59:20;100746.47;;;23.32;100.00
62942;BME280;49042;47.318;19.874;2023-06-22T06:02:22;100758.56;;;23.51;100.00
62942;BME280;49042;47.318;19.874;2023-06-22T06:05:24;100748.78;;;23.51;100.00
62942;BME280;49042;47.318;19.874;2023-06-22T06:08:27;100755.81;;;23.59;100.00
62942;BME280;49042;47.318;19.874;2023-06-22T06:11:28;100752.72;;;23.81;100.00
62942;BME280;49042;47.318;19.874;2023-06-22T06:14:30;100759.47;;;23.99;100.00
62942;BME280;49042;47.318;19.874;2023-06-22T06:17:32;100759.37;;;24.04;100.00
62942;BME280;49042;47.318;19.874;2023-06-22T06:20:33;100753.22;;;24.45;100.00
62942;BME280;49042;47.318;19.874;2023-06-22T06:23:35;100750.69;;;24.38;100.00
62942;BME280;49042;47.318;19.874;2023-06-22T06:26:37;100762.31;;;24.74;100.00
62942;BME280;49042;47.318;19.874;2023-06-22T06:29:41;100758.03;;;24.68;100.00
62942;BME280;49042;47.318;19.874;2023-06-22T06:32:43;100759.56;;;24.79;100.00
62942;BME280;49042;47.318;19.874;2023-06-22T06:35:47;100767.16;;;24.96;100.00
62942;BME280;49042;47.318;19.874;2023-06-22T06:38:48;100767.41;;;25.23;100.00
62942;BME280;49042;47.318;19.874;2023-06-22T06:41:50;100773.31;;;25.37;100.00
62942;BME280;49042;47.318;19.874;2023-06-22T06:44:52;100778.06;;;25.25;100.00
62942;BME280;49042;47.318;19.874;2023-06-22T06:47:53;100773.44;;;25.30;100.00
62942;BME280;49042;47.318;19.874;2023-06-22T06:50:55;100782.06;;;25.42;100.00
62942;BME280;49042;47.318;19.874;2023-06-22T06:53:57;100783.03;;;25.39;100.00
62942;BME280;49042;47.318;19.874;2023-06-22T06:56:59;100777.41;;;25.84;100.00
62942;BME280;49042;47.318;19.874;2023-06-22T07:00:00;100770.56;;;25.73;100.00
62942;BME280;49042;47.318;19.874;2023-06-22T07:03:02;100765.50;;;25.62;100.00
62942;BME280;49042;47.318;19.874;2023-06-22T07:06:04;100762.94;;;25.93;100.00
62942;BME280;49042;47.318;19.874;2023-06-22T07:09:06;100763.81;;;25.93;98.95
62942;BME280;49042;47.318;19.874;2023-06-22T07:12:08;100758.31;;;26.60;92.71
62942;BME280;49042;47.318;19.874;2023-06-22T07:15:10;100755.00;;;26.52;92.78
62942;BME280;49042;47.318;19.874;2023-06-22T07:18:13;100753.56;;;26.69;89.91
62942;BME280;49042;47.318;19.874;2023-06-22T07:21:14;100753.88;;;26.88;89.87
62942;BME280;49042;47.318;19.874;2023-06-22T07:24:16;100744.66;;;26.68;87.37
62942;BME280;49042;47.318;19.874;2023-06-22T07:27:18;100734.19;;;27.16;81.09
62942;BME280;49042;47.318;19.874;2023-06-22T07:30:21;100742.84;;;26.98;76.12
62942;BME280;49042;47.318;19.874;2023-06-22T07:33:23;100740.78;;;26.79;68.39
62942;BME280;49042;47.318;19.874;2023-06-22T07:36:24;100741.16;;;27.22;79.02
62942;BME280;49042;47.318;19.874;2023-06-22T07:39:26;100743.31;;;27.38;70.41
62942;BME280;49042;47.318;19.874;2023-06-22T07:42:28;100736.91;;;27.15;64.53
62942;BME280;49042;47.318;19.874;2023-06-22T07:45:34;100742.37;;;27.39;72.39
62942;BME280;49042;47.318;19.874;2023-06-22T07:48:37;100739.69;;;27.65;63.52
62942;BME280;49042;47.318;19.874;2023-06-22T07:51:39;100734.41;;;27.63;70.85
62942;BME280;49042;47.318;19.874;2023-06-22T07:54:41;100738.16;;;27.57;64.43
62942;BME280;49042;47.318;19.874;2023-06-22T07:57:43;100733.09;;;27.24;60.91
62942;BME280;49042;47.318;19.874;2023-06-22T08:00:44;100740.50;;;27.67;67.42
62942;BME280;49042;47.318;19.874;2023-06-22T08:03:49;100736.59;;;27.52;64.72
62942;BME280;49042;47.318;19.874;2023-06-22T08:06:51;100741.75;;;27.82;65.85
62942;BME280;49042;47.318;19.874;2023-06-22T08:09:53;100734.19;;;28.18;64.63
62942;BME280;49042;47.318;19.874;2023-06-22T08:12:55;100737.53;;;28.47;65.19
62942;BME280;49042;47.318;19.874;2023-06-22T08:15:56;100735.34;;;28.34;64.29
62942;BME280;49042;47.318;19.874;2023-06-22T08:18:58;100740.28;;;28.23;68.49
62942;BME280;49042;47.318;19.874;2023-06-22T08:22:00;100744.38;;;28.79;66.35
62942;BME280;49042;47.318;19.874;2023-06-22T08:25:03;100744.97;;;29.08;63.83
62942;BME280;49042;47.318;19.874;2023-06-22T08:28:05;100746.25;;;29.83;55.93
62942;BME280;49042;47.318;19.874;2023-06-22T08:31:07;100742.84;;;30.94;52.75
62942;BME280;49042;47.318;19.874;2023-06-22T08:34:09;100744.53;;;31.15;49.47
62942;BME280;49042;47.318;19.874;2023-06-22T08:37:11;100746.66;;;33.08;45.02
62942;BME280;49042;47.318;19.874;2023-06-22T08:40:13;100740.69;;;34.77;40.86
62942;BME280;49042;47.318;19.874;2023-06-22T08:43:14;100738.03;;;37.07;35.46
62942;BME280;49042;47.318;19.874;2023-06-22T08:46:16;100744.09;;;39.25;30.67
62942;BME280;49042;47.318;19.874;2023-06-22T08:49:21;100744.50;;;38.44;30.67
62942;BME280;49042;47.318;19.874;2023-06-22T08:52:23;100744.78;;;38.63;30.76
62942;BME280;49042;47.318;19.874;2023-06-22T08:55:25;100735.87;;;38.61;29.27
62942;BME280;49042;47.318;19.874;2023-06-22T08:58:27;100741.44;;;41.76;25.65
62942;BME280;49042;47.318;19.874;2023-06-22T09:01:29;100746.59;;;42.07;25.39
62942;BME280;49042;47.318;19.874;2023-06-22T09:04:31;100734.16;;;41.08;26.10
62942;BME280;49042;47.318;19.874;2023-06-22T09:07:36;100726.84;;;40.89;25.88
62942;BME280;49042;47.318;19.874;2023-06-22T09:10:38;100729.00;;;40.95;25.90
62942;BME280;49042;47.318;19.874;2023-06-22T09:13:40;100726.66;;;43.42;23.48
62942;BME280;49042;47.318;19.874;2023-06-22T09:16:41;100729.03;;;42.28;23.53
62942;BME280;49042;47.318;19.874;2023-06-22T09:19:43;100732.69;;;46.99;19.78
62942;BME280;49042;47.318;19.874;2023-06-22T09:22:45;100725.16;;;46.78;19.28
62942;BME280;49042;47.318;19.874;2023-06-22T09:25:47;100723.66;;;46.67;19.22
62942;BME280;49042;47.318;19.874;2023-06-22T09:28:49;100725.13;;;45.83;19.86
62942;BME280;49042;47.318;19.874;2023-06-22T09:31:51;100724.41;;;41.82;23.68
62942;BME280;49042;47.318;19.874;2023-06-22T09:34:55;100716.94;;;43.65;22.40
62942;BME280;49042;47.318;19.874;2023-06-22T09:37:56;100721.25;;;45.69;20.09
62942;BME280;49042;47.318;19.874;2023-06-22T09:40:58;100714.53;;;43.62;21.32
62942;BME280;49042;47.318;19.874;2023-06-22T09:44:00;100723.28;;;46.07;18.94
62942;BME280;49042;47.318;19.874;2023-06-22T09:47:02;100723.31;;;45.18;19.82
62942;BME280;49042;47.318;19.874;2023-06-22T09:50:05;100711.47;;;44.92;19.86
62942;BME280;49042;47.318;19.874;2023-06-22T09:53:07;100714.34;;;44.15;20.98
62942;BME280;49042;47.318;19.874;2023-06-22T09:56:09;100718.47;;;46.33;19.69
62942;BME280;49042;47.318;19.874;2023-06-22T09:59:16;100718.59;;;46.40;18.85
62942;BME280;49042;47.318;19.874;2023-06-22T10:02:19;100715.84;;;45.35;19.76
62942;BME280;49042;47.318;19.874;2023-06-22T10:05:21;100711.59;;;43.47;21.87
62942;BME280;49042;47.318;19.874;2023-06-22T10:08:23;100717.12;;;41.91;23.84
62942;BME280;49042;47.318;19.874;2023-06-22T10:11:25;100710.09;;;41.12;24.73
62942;BME280;49042;47.318;19.874;2023-06-22T10:14:30;100702.88;;;38.75;26.50
62942;BME280;49042;47.318;19.874;2023-06-22T10:17:32;100697.06;;;37.45;28.91
62942;BME280;49042;47.318;19.874;2023-06-22T10:20:34;100701.09;;;37.04;30.39
62942;BME280;49042;47.318;19.874;2023-06-22T10:23:36;100688.94;;;35.34;32.46
62942;BME280;49042;47.318;19.874;2023-06-22T10:26:38;100691.28;;;34.18;35.05
62942;BME280;49042;47.318;19.874;2023-06-22T10:29:39;100686.03;;;33.58;36.74
62942;BME280;49042;47.318;19.874;2023-06-22T10:32:42;100695.81;;;33.45;37.70
62942;BME280;49042;47.318;19.874;2023-06-22T10:35:47;100696.66;;;33.31;39.14
62942;BME280;49042;47.318;19.874;2023-06-22T10:38:49;100694.06;;;33.59;39.37
62942;BME280;49042;47.318;19.874;2023-06-22T10:41:50;100691.44;;;33.72;38.67
62942;BME280;49042;47.318;19.874;2023-06-22T10:44:52;100694.72;;;33.77;38.62
62942;BME280;49042;47.318;19.874;2023-06-22T10:47:54;100695.94;;;33.28;38.32
62942;BME280;49042;47.318;19.874;2023-06-22T10:50:56;100691.78;;;33.22;41.06
62942;BME280;49042;47.318;19.874;2023-06-22T10:53:57;100679.47;;;33.32;39.88
62942;BME280;49042;47.318;19.874;2023-06-22T10:57:00;100686.62;;;33.63;41.24
62942;BME280;49042;47.318;19.874;2023-06-22T11:00:02;100692.62;;;33.53;40.81
62942;BME280;49042;47.318;19.874;2023-06-22T11:03:06;100684.87;;;33.32;40.51
62942;BME280;49042;47.318;19.874;2023-06-22T11:06:08;100689.59;;;33.43;40.09
62942;BME280;49042;47.318;19.874;2023-06-22T11:09:10;100685.53;;;33.36;40.23
62942;BME280;49042;47.318;19.874;2023-06-22T11:12:17;100675.31;;;33.56;40.22
62942;BME280;49042;47.318;19.874;2023-06-22T11:15:19;100673.84;;;33.65;39.43
62942;BME280;49042;47.318;19.874;2023-06-22T11:18:21;100671.16;;;33.65;40.85
62942;BME280;49042;47.318;19.874;2023-06-22T11:21:24;100674.16;;;32.54;44.74
62942;BME280;49042;47.318;19.874;2023-06-22T11:24:26;100672.84;;;32.45;44.31
62942;BME280;49042;47.318;19.874;2023-06-22T11:27:28;100674.06;;;33.32;43.55
62942;BME280;49042;47.318;19.874;2023-06-22T11:30:30;100672.56;;;34.00;40.73
62942;BME280;49042;47.318;19.874;2023-06-22T11:33:32;100665.53;;;34.25;40.21
62942;BME280;49042;47.318;19.874;2023-06-22T11:36:34;100664.81;;;34.36;39.89
62942;BME280;49042;47.318;19.874;2023-06-22T11:39:36;100666.66;;;35.44;39.04
62942;BME280;49042;47.318;19.874;2023-06-22T11:42:48;100666.16;;;36.63;36.29
62942;BME280;49042;47.318;19.874;2023-06-22T11:45:49;100670.84;;;37.44;34.99
62942;BME280;49042;47.318;19.874;2023-06-22T11:48:51;100663.00;;;39.59;30.42
62942;BME280;49042;47.318;19.874;2023-06-22T11:51:53;100677.72;;;41.84;27.01
62942;BME280;49042;47.318;19.874;2023-06-22T11:54:55;100670.53;;;43.97;24.26
62942;BME280;49042;47.318;19.874;2023-06-22T11:57:57;100678.41;;;43.75;25.18
62942;BME280;49042;47.318;19.874;2023-06-22T12:01:02;100671.44;;;43.54;24.42
62942;BME280;49042;47.318;19.874;2023-06-22T12:04:03;100669.75;;;43.61;24.12
62942;BME280;49042;47.318;19.874;2023-06-22T12:07:07;100673.47;;;45.53;23.61
62942;BME280;49042;47.318;19.874;2023-06-22T12:10:09;100669.91;;;45.76;22.00
62942;BME280;49042;47.318;19.874;2023-06-22T12:13:11;100669.03;;;48.06;19.90
62942;BME280;49042;47.318;19.874;2023-06-22T12:16:12;100665.50;;;47.07;21.12
62942;BME280;49042;47.318;19.874;2023-06-22T12:19:14;100665.78;;;45.72;21.20
62942;BME280;49042;47.318;19.874;2023-06-22T12:22:16;100651.88;;;44.59;22.69
62942;BME280;49042;47.318;19.874;2023-06-22T12:25:18;100658.88;;;46.47;21.20
62942;BME280;49042;47.318;19.874;2023-06-22T12:28:19;100655.66;;;48.31;19.15
62942;BME280;49042;47.318;19.874;2023-06-22T12:31:21;100646.41;;;46.75;21.11
62942;BME280;49042;47.318;19.874;2023-06-22T12:34:23;100650.41;;;47.93;19.72
62942;BME280;49042;47.318;19.874;2023-06-22T12:37:25;100651.69;;;47.37;19.15
62942;BME280;49042;47.318;19.874;2023-06-22T12:40:26;100654.00;;;49.44;18.47
62942;BME280;49042;47.318;19.874;2023-06-22T12:43:29;100650.25;;;50.68;16.76
62942;BME280;49042;47.318;19.874;2023-06-22T12:46:30;100644.31;;;49.76;17.35
62942;BME280;49042;47.318;19.874;2023-06-22T12:49:38;100631.38;;;46.93;19.19
62942;BME280;49042;47.318;19.874;2023-06-22T12:52:40;100636.34;;;49.66;17.64
62942;BME280;49042;47.318;19.874;2023-06-22T12:55:42;100635.97;;;48.77;17.78
62942;BME280;49042;47.318;19.874;2023-06-22T12:58:44;100626.72;;;48.98;17.78
62942;BME280;49042;47.318;19.874;2023-06-22T13:01:46;100622.78;;;46.72;19.34
62942;BME280;49042;47.318;19.874;2023-06-22T13:04:48;100623.72;;;45.23;20.90
62942;BME280;49042;47.318;19.874;2023-06-22T13:07:49;100619.84;;;41.12;25.52
62942;BME280;49042;47.318;19.874;2023-06-22T13:10:51;100618.69;;;39.87;27.42
62942;BME280;49042;47.318;19.874;2023-06-22T13:13:53;100614.09;;;40.47;28.08
62942;BME280;49042;47.318;19.874;2023-06-22T13:16:54;100609.78;;;44.00;23.39
62942;BME280;49042;47.318;19.874;2023-06-22T13:19:56;100603.78;;;44.13;22.68
62942;BME280;49042;47.318;19.874;2023-06-22T13:22:58;100597.50;;;42.10;24.54
62942;BME280;49042;47.318;19.874;2023-06-22T13:25:59;100593.63;;;39.10;28.07
62942;BME280;49042;47.318;19.874;2023-06-22T13:29:02;100588.44;;;37.32;30.79
62942;BME280;49042;47.318;19.874;2023-06-22T13:32:04;100581.88;;;37.34;31.92
62942;BME280;49042;47.318;19.874;2023-06-22T13:35:06;100576.44;;;34.63;37.00
62942;BME280;49042;47.318;19.874;2023-06-22T13:38:09;100586.19;;;32.81;42.44
62942;BME280;49042;47.318;19.874;2023-06-22T13:41:10;100572.13;;;33.20;42.38
62942;BME280;49042;47.318;19.874;2023-06-22T13:44:12;100575.34;;;33.84;41.72
62942;BME280;49042;47.318;19.874;2023-06-22T13:47:14;100565.72;;;34.61;40.15
62942;BME280;49042;47.318;19.874;2023-06-22T13:50:15;100570.50;;;37.52;34.16
62942;BME280;49042;47.318;19.874;2023-06-22T13:53:18;100578.38;;;40.78;29.52
62942;BME280;49042;47.318;19.874;2023-06-22T13:56:19;100568.28;;;37.23;33.40
62942;BME280;49042;47.318;19.874;2023-06-22T13:59:21;100573.34;;;39.03;31.21
62942;BME280;49042;47.318;19.874;2023-06-22T14:02:23;100561.34;;;42.06;27.62
62942;BME280;49042;47.318;19.874;2023-06-22T14:05:25;100567.03;;;41.40;27.91
62942;BME280;49042;47.318;19.874;2023-06-22T14:08:27;100559.34;;;41.90;27.65
62942;BME280;49042;47.318;19.874;2023-06-22T14:11:31;100559.88;;;42.92;26.45
62942;BME280;49042;47.318;19.874;2023-06-22T14:14:33;100559.06;;;39.82;30.45
62942;BME280;49042;47.318;19.874;2023-06-22T14:17:35;100554.69;;;37.23;32.86
62942;BME280;49042;47.318;19.874;2023-06-22T14:20:37;100552.25;;;35.25;36.12
62942;BME280;49042;47.318;19.874;2023-06-22T14:23:39;100550.31;;;35.65;36.71
62942;BME280;49042;47.318;19.874;2023-06-22T14:26:41;100542.75;;;34.93;39.42
62942;BME280;49042;47.318;19.874;2023-06-22T14:29:43;100542.66;;;34.28;40.70
62942;BME280;49042;47.318;19.874;2023-06-22T14:32:44;100543.44;;;34.30;40.33
62942;BME280;49042;47.318;19.874;2023-06-22T14:35:46;100529.13;;;34.15;39.38
62942;BME280;49042;47.318;19.874;2023-06-22T14:38:48;100528.56;;;34.77;39.79
62942;BME280;49042;47.318;19.874;2023-06-22T14:41:50;100524.97;;;35.02;38.20
62942;BME280;49042;47.318;19.874;2023-06-22T14:44:52;100515.75;;;34.79;39.76
62942;BME280;49042;47.318;19.874;2023-06-22T14:47:53;100519.91;;;34.45;39.83
62942;BME280;49042;47.318;19.874;2023-06-22T14:50:55;100522.59;;;34.71;39.21
62942;BME280;49042;47.318;19.874;2023-06-22T14:53:57;100516.72;;;34.78;37.86
62942;BME280;49042;47.318;19.874;2023-06-22T14:56:58;100509.59;;;34.64;38.88
62942;BME280;49042;47.318;19.874;2023-06-22T15:00:00;100508.19;;;34.97;37.62
62942;BME280;49042;47.318;19.874;2023-06-22T15:03:04;100499.94;;;34.86;37.68
62942;BME280;49042;47.318;19.874;2023-06-22T15:06:08;100497.13;;;34.87;37.77
62942;BME280;49042;47.318;19.874;2023-06-22T15:09:10;100485.19;;;35.03;37.43
62942;BME280;49042;47.318;19.874;2023-06-22T15:12:12;100484.97;;;35.06;37.99
62942;BME280;49042;47.318;19.874;2023-06-22T15:15:14;100490.97;;;35.36;37.54
62942;BME280;49042;47.318;19.874;2023-06-22T15:18:16;100491.66;;;35.26;38.84
62942;BME280;49042;47.318;19.874;2023-06-22T15:21:18;100484.19;;;35.42;38.87
62942;BME280;49042;47.318;19.874;2023-06-22T15:24:19;100478.34;;;35.10;38.76
62942;BME280;49042;47.318;19.874;2023-06-22T15:27:21;100482.19;;;34.68;39.61
62942;BME280;49042;47.318;19.874;2023-06-22T15:30:23;100486.62;;;34.56;39.59
62942;BME280;49042;47.318;19.874;2023-06-22T15:33:25;100476.34;;;34.61;39.90
62942;BME280;49042;47.318;19.874;2023-06-22T15:36:27;100482.59;;;34.23;39.91
62942;BME280;49042;47.318;19.874;2023-06-22T15:39:28;100474.91;;;34.16;39.45
62942;BME280;49042;47.318;19.874;2023-06-22T15:42:30;100472.91;;;33.64;40.97